sensor_id;sensor_type;location;lat;lon;timestamp;temperature;humidity
57030;DHT22;42920;45.306;20.448;2023-04-12T00:00:58;333.00;2329.60
57030;DHT22;42920;45.306;20.448;2023-04-12T00:03:25;333.00;2329.60
57030;DHT22;42920;45.306;20.448;2023-04-12T00:05:51;333.00;2329.60
57030;DHT22;42920;45.306;20.448;2023-04-12T00:08:19;333.10;2329.60
57030;DHT22;42920;45.306;20.448;2023-04-12T00:10:49;333.10;2329.60
57030;DHT22;42920;45.306;20.448;2023-04-12T00:13:14;333.10;2329.60
57030;DHT22;42920;45.306;20.448;2023-04-12T00:15:40;333.00;2329.60
57030;DHT22;42920;45.306;20.448;2023-04-12T00:18:06;332.90;2329.60
57030;DHT22;42920;45.306;20.448;2023-04-12T00:20:31;332.90;2329.60
57030;DHT22;42920;45.306;20.448;2023-04-12T00:22:57;332.90;2329.60
57030;DHT22;42920;45.306;20.448;2023-04-12T00:25:22;332.90;2329.60
57030;DHT22;42920;45.306;20.448;2023-04-12T00:27:48;332.80;2329.60
57030;DHT22;42920;45.306;20.448;2023-04-12T00:30:13;332.90;2329.60
57030;DHT22;42920;45.306;20.448;2023-04-12T00:32:39;332.80;2329.60
57030;DHT22;42920;45.306;20.448;2023-04-12T00:35:05;308.10;2304.00
57030;DHT22;42920;45.306;20.448;2023-04-12T00:37:31;332.90;2329.60
57030;DHT22;42920;45.306;20.448;2023-04-12T00:39:57;332.90;2329.60
57030;DHT22;42920;45.306;20.448;2023-04-12T00:42:22;332.90;2329.60
57030;DHT22;42920;45.306;20.448;2023-04-12T00:44:48;332.90;2329.60
57030;DHT22;42920;45.306;20.448;2023-04-12T00:47:13;332.80;2329.60
57030;DHT22;42920;45.306;20.448;2023-04-12T00:49:39;332.80;2329.60
57030;DHT22;42920;45.306;20.448;2023-04-12T00:52:06;308.10;2304.00
57030;DHT22;42920;45.306;20.448;2023-04-12T00:54:33;308.10;2304.00
57030;DHT22;42920;45.306;20.448;2023-04-12T00:57:01;308.00;2304.00
57030;DHT22;42920;45.306;20.448;2023-04-12T00:59:27;308.00;2304.00
57030;DHT22;42920;45.306;20.448;2023-04-12T01:01:53;307.90;2304.00
57030;DHT22;42920;45.306;20.448;2023-04-12T01:04:19;308.00;2304.00
57030;DHT22;42920;45.306;20.448;2023-04-12T01:14:31;307.80;2304.00
57030;DHT22;42920;45.306;20.448;2023-04-12T01:17:01;307.70;2304.00
57030;DHT22;42920;45.306;20.448;2023-04-12T01:22:15;307.70;2304.00
57030;DHT22;42920;45.306;20.448;2023-04-12T01:24:45;307.70;2304.00
57030;DHT22;42920;45.306;20.448;2023-04-12T01:29:52;307.50;2304.00
57030;DHT22;42920;45.306;20.448;2023-04-12T01:32:19;307.50;2304.00
57030;DHT22;42920;45.306;20.448;2023-04-12T01:34:45;307.40;2304.00
57030;DHT22;42920;45.306;20.448;2023-04-12T01:37:11;307.40;2304.00
57030;DHT22;42920;45.306;20.448;2023-04-12T01:39:37;307.30;2304.00
57030;DHT22;42920;45.306;20.448;2023-04-12T01:42:03;307.30;2304.00
57030;DHT22;42920;45.306;20.448;2023-04-12T01:44:28;307.20;2304.00
57030;DHT22;42920;45.306;20.448;2023-04-12T01:46:54;307.20;2304.00
57030;DHT22;42920;45.306;20.448;2023-04-12T01:49:20;282.50;2278.40
57030;DHT22;42920;45.306;20.448;2023-04-12T01:54:12;282.50;2278.40
57030;DHT22;42920;45.306;20.448;2023-04-12T01:56:45;282.50;2278.40
57030;DHT22;42920;45.306;20.448;2023-04-12T01:59:13;282.50;2278.40
57030;DHT22;42920;45.306;20.448;2023-04-12T02:01:38;282.10;2278.40
57030;DHT22;42920;45.306;20.448;2023-04-12T02:04:04;282.20;2278.40
57030;DHT22;42920;45.306;20.448;2023-04-12T02:06:30;282.20;2278.40
57030;DHT22;42920;45.306;20.448;2023-04-12T02:09:00;282.00;2278.40
57030;DHT22;42920;45.306;20.448;2023-04-12T02:11:27;281.80;2278.40
57030;DHT22;42920;45.306;20.448;2023-04-12T02:13:52;281.60;2278.40
57030;DHT22;42920;45.306;20.448;2023-04-12T02:16:18;281.70;2278.40
57030;DHT22;42920;45.306;20.448;2023-04-12T02:18:45;281.60;2278.40
57030;DHT22;42920;45.306;20.448;2023-04-12T02:21:10;281.70;2278.40
57030;DHT22;42920;45.306;20.448;2023-04-12T02:23:36;281.60;2278.40
57030;DHT22;42920;45.306;20.448;2023-04-12T02:28:28;256.80;2252.80
57030;DHT22;42920;45.306;20.448;2023-04-12T02:30:53;256.70;2252.80
57030;DHT22;42920;45.306;20.448;2023-04-12T02:33:19;256.70;2252.80
57030;DHT22;42920;45.306;20.448;2023-04-12T02:35:53;256.60;2252.80
57030;DHT22;42920;45.306;20.448;2023-04-12T02:38:21;256.70;2252.80
57030;DHT22;42920;45.306;20.448;2023-04-12T02:40:47;256.80;2252.80
57030;DHT22;42920;45.306;20.448;2023-04-12T02:43:13;256.80;2252.80
57030;DHT22;42920;45.306;20.448;2023-04-12T02:45:38;256.80;2252.80
57030;DHT22;42920;45.306;20.448;2023-04-12T02:48:04;256.90;2252.80
57030;DHT22;42920;45.306;20.448;2023-04-12T02:50:30;256.80;2252.80
57030;DHT22;42920;45.306;20.448;2023-04-12T02:52:55;256.80;2252.80
57030;DHT22;42920;45.306;20.448;2023-04-12T02:55:21;256.80;2252.80
57030;DHT22;42920;45.306;20.448;2023-04-12T02:57:46;256.90;2252.80
57030;DHT22;42920;45.306;20.448;2023-04-12T03:00:13;256.90;2252.80
57030;DHT22;42920;45.306;20.448;2023-04-12T03:02:42;256.80;2252.80
57030;DHT22;42920;45.306;20.448;2023-04-12T03:05:08;256.70;2252.80
57030;DHT22;42920;45.306;20.448;2023-04-12T03:07:33;256.60;2252.80
57030;DHT22;42920;45.306;20.448;2023-04-12T03:10:00;256.60;2252.80
57030;DHT22;42920;45.306;20.448;2023-04-12T03:12:26;256.40;2252.80
57030;DHT22;42920;45.306;20.448;2023-04-12T03:14:51;256.40;2252.80
57030;DHT22;42920;45.306;20.448;2023-04-12T03:17:17;256.40;2252.80
57030;DHT22;42920;45.306;20.448;2023-04-12T03:19:42;256.30;2252.80
57030;DHT22;42920;45.306;20.448;2023-04-12T03:22:08;256.20;2252.80
57030;DHT22;42920;45.306;20.448;2023-04-12T03:24:33;256.20;2252.80
57030;DHT22;42920;45.306;20.448;2023-04-12T03:27:00;256.20;2252.80
57030;DHT22;42920;45.306;20.448;2023-04-12T03:29:26;256.10;2252.80
57030;DHT22;42920;45.306;20.448;2023-04-12T03:31:51;256.10;2252.80
57030;DHT22;42920;45.306;20.448;2023-04-12T03:34:17;256.10;2252.80
57030;DHT22;42920;45.306;20.448;2023-04-12T03:36:43;256.00;2252.80
57030;DHT22;42920;45.306;20.448;2023-04-12T03:39:08;256.00;2252.80
57030;DHT22;42920;45.306;20.448;2023-04-12T03:41:34;231.30;2252.80
57030;DHT22;42920;45.306;20.448;2023-04-12T03:43:59;231.30;2252.80
57030;DHT22;42920;45.306;20.448;2023-04-12T03:46:25;231.10;2252.80
57030;DHT22;42920;45.306;20.448;2023-04-12T03:48:50;231.10;2252.80
57030;DHT22;42920;45.306;20.448;2023-04-12T03:51:16;231.10;2252.80
57030;DHT22;42920;45.306;20.448;2023-04-12T03:53:42;231.00;2252.80
57030;DHT22;42920;45.306;20.448;2023-04-12T03:56:07;231.00;2252.80
57030;DHT22;42920;45.306;20.448;2023-04-12T03:58:33;231.00;2252.80
57030;DHT22;42920;45.306;20.448;2023-04-12T04:01:02;230.80;2252.80
57030;DHT22;42920;45.306;20.448;2023-04-12T04:03:30;230.90;2252.80
57030;DHT22;42920;45.306;20.448;2023-04-12T04:05:59;230.90;2252.80
57030;DHT22;42920;45.306;20.448;2023-04-12T04:08:25;230.90;2252.80
57030;DHT22;42920;45.306;20.448;2023-04-12T04:10:51;230.90;2252.80
57030;DHT22;42920;45.306;20.448;2023-04-12T04:13:16;230.90;2252.80
57030;DHT22;42920;45.306;20.448;2023-04-12T04:15:42;231.00;2252.80
57030;DHT22;42920;45.306;20.448;2023-04-12T04:18:07;231.00;2252.80
57030;DHT22;42920;45.306;20.448;2023-04-12T04:20:33;230.90;2252.80
57030;DHT22;42920;45.306;20.448;2023-04-12T04:22:58;231.00;2252.80
57030;DHT22;42920;45.306;20.448;2023-04-12T04:25:24;230.80;2252.80
57030;DHT22;42920;45.306;20.448;2023-04-12T04:27:54;230.60;2252.80
57030;DHT22;42920;45.306;20.448;2023-04-12T04:30:20;230.70;2252.80
57030;DHT22;42920;45.306;20.448;2023-04-12T04:32:47;230.80;2252.80
57030;DHT22;42920;45.306;20.448;2023-04-12T04:35:13;230.90;2252.80
57030;DHT22;42920;45.306;20.448;2023-04-12T04:37:41;230.80;2252.80
57030;DHT22;42920;45.306;20.448;2023-04-12T04:40:07;230.80;2252.80
57030;DHT22;42920;45.306;20.448;2023-04-12T04:42:33;230.80;2252.80
57030;DHT22;42920;45.306;20.448;2023-04-12T04:44:59;230.80;2252.80
57030;DHT22;42920;45.306;20.448;2023-04-12T04:47:27;230.90;2252.80
57030;DHT22;42920;45.306;20.448;2023-04-12T04:49:55;231.00;2252.80
57030;DHT22;42920;45.306;20.448;2023-04-12T04:52:22;231.00;2252.80
57030;DHT22;42920;45.306;20.448;2023-04-12T04:54:47;231.10;2252.80
57030;DHT22;42920;45.306;20.448;2023-04-12T04:57:13;231.10;2252.80
57030;DHT22;42920;45.306;20.448;2023-04-12T04:59:39;231.10;2252.80
57030;DHT22;42920;45.306;20.448;2023-04-12T05:02:04;231.00;2252.80
57030;DHT22;42920;45.306;20.448;2023-04-12T05:04:30;231.00;2252.80
57030;DHT22;42920;45.306;20.448;2023-04-12T05:06:55;231.10;2252.80
57030;DHT22;42920;45.306;20.448;2023-04-12T05:09:21;231.00;2252.80
57030;DHT22;42920;45.306;20.448;2023-04-12T05:11:47;231.00;2252.80
57030;DHT22;42920;45.306;20.448;2023-04-12T05:14:12;231.00;2252.80
57030;DHT22;42920;45.306;20.448;2023-04-12T05:16:38;231.20;2252.80
57030;DHT22;42920;45.306;20.448;2023-04-12T05:19:03;231.20;2252.80
57030;DHT22;42920;45.306;20.448;2023-04-12T05:21:29;231.20;2252.80
57030;DHT22;42920;45.306;20.448;2023-04-12T05:23:55;231.20;2252.80
57030;DHT22;42920;45.306;20.448;2023-04-12T05:26:20;231.30;2252.80
57030;DHT22;42920;45.306;20.448;2023-04-12T05:28:46;231.30;2252.80
57030;DHT22;42920;45.306;20.448;2023-04-12T05:31:12;256.00;2252.80
57030;DHT22;42920;45.306;20.448;2023-04-12T05:33:37;256.00;2252.80
57030;DHT22;42920;45.306;20.448;2023-04-12T05:36:03;256.10;2252.80
57030;DHT22;42920;45.306;20.448;2023-04-12T05:38:29;256.10;2252.80
57030;DHT22;42920;45.306;20.448;2023-04-12T05:40:54;256.00;2252.80
57030;DHT22;42920;45.306;20.448;2023-04-12T05:43:20;256.10;2252.80
57030;DHT22;42920;45.306;20.448;2023-04-12T05:45:45;256.20;2252.80
57030;DHT22;42920;45.306;20.448;2023-04-12T05:48:11;256.20;2252.80
57030;DHT22;42920;45.306;20.448;2023-04-12T05:50:37;256.20;2252.80
57030;DHT22;42920;45.306;20.448;2023-04-12T05:53:03;256.20;2252.80
57030;DHT22;42920;45.306;20.448;2023-04-12T05:55:29;256.40;2252.80
57030;DHT22;42920;45.306;20.448;2023-04-12T05:57:54;256.40;2252.80
57030;DHT22;42920;45.306;20.448;2023-04-12T06:00:20;256.60;2252.80
57030;DHT22;42920;45.306;20.448;2023-04-12T06:02:46;256.60;2252.80
57030;DHT22;42920;45.306;20.448;2023-04-12T06:05:12;256.60;2252.80
57030;DHT22;42920;45.306;20.448;2023-04-12T06:07:38;256.60;2252.80
57030;DHT22;42920;45.306;20.448;2023-04-12T06:10:05;256.60;2252.80
57030;DHT22;42920;45.306;20.448;2023-04-12T06:12:31;256.60;2252.80
57030;DHT22;42920;45.306;20.448;2023-04-12T06:14:57;256.60;2252.80
57030;DHT22;42920;45.306;20.448;2023-04-12T06:17:22;256.90;2252.80
57030;DHT22;42920;45.306;20.448;2023-04-12T06:19:48;281.60;2278.40
57030;DHT22;42920;45.306;20.448;2023-04-12T06:22:14;256.90;2252.80
57030;DHT22;42920;45.306;20.448;2023-04-12T06:24:39;281.70;2278.40
57030;DHT22;42920;45.306;20.448;2023-04-12T06:27:05;281.80;2278.40
57030;DHT22;42920;45.306;20.448;2023-04-12T06:29:30;282.00;2278.40
57030;DHT22;42920;45.306;20.448;2023-04-12T06:31:56;282.10;2278.40
57030;DHT22;42920;45.306;20.448;2023-04-12T06:34:21;282.10;2278.40
57030;DHT22;42920;45.306;20.448;2023-04-12T06:36:47;282.20;2278.40
57030;DHT22;42920;45.306;20.448;2023-04-12T06:39:13;282.40;2278.40
57030;DHT22;42920;45.306;20.448;2023-04-12T06:41:40;282.50;2278.40
57030;DHT22;42920;45.306;20.448;2023-04-12T06:44:08;307.20;2304.00
57030;DHT22;42920;45.306;20.448;2023-04-12T06:46:34;307.30;2304.00
57030;DHT22;42920;45.306;20.448;2023-04-12T06:48:59;307.30;2304.00
57030;DHT22;42920;45.306;20.448;2023-04-12T06:51:25;307.30;2304.00
57030;DHT22;42920;45.306;20.448;2023-04-12T06:53:52;307.40;2304.00
57030;DHT22;42920;45.306;20.448;2023-04-12T06:56:19;307.60;2304.00
57030;DHT22;42920;45.306;20.448;2023-04-12T06:58:45;307.80;2304.00
57030;DHT22;42920;45.306;20.448;2023-04-12T07:01:10;307.70;2304.00
57030;DHT22;42920;45.306;20.448;2023-04-12T07:03:37;307.70;2304.00
57030;DHT22;42920;45.306;20.448;2023-04-12T07:06:03;307.80;2304.00
57030;DHT22;42920;45.306;20.448;2023-04-12T07:08:29;307.70;2304.00
57030;DHT22;42920;45.306;20.448;2023-04-12T07:10:55;307.80;2304.00
57030;DHT22;42920;45.306;20.448;2023-04-12T07:13:20;307.90;2304.00
57030;DHT22;42920;45.306;20.448;2023-04-12T07:15:49;332.80;2329.60
57030;DHT22;42920;45.306;20.448;2023-04-12T07:18:15;332.90;2329.60
57030;DHT22;42920;45.306;20.448;2023-04-12T07:20:41;332.90;2278.40
57030;DHT22;42920;45.306;20.448;2023-04-12T07:23:06;333.00;2329.60
57030;DHT22;42920;45.306;20.448;2023-04-12T07:25:32;333.00;2329.60
57030;DHT22;42920;45.306;20.448;2023-04-12T07:27:57;333.00;2329.60
57030;DHT22;42920;45.306;20.448;2023-04-12T07:30:23;333.10;2278.40
57030;DHT22;42920;45.306;20.448;2023-04-12T07:32:49;333.30;2278.40
57030;DHT22;42920;45.306;20.448;2023-04-12T07:35:15;333.40;2201.60
57030;DHT22;42920;45.306;20.448;2023-04-12T07:37:41;333.50;2201.60
57030;DHT22;42920;45.306;20.448;2023-04-12T07:40:06;333.50;2176.00
57030;DHT22;42920;45.306;20.448;2023-04-12T07:42:32;333.60;2124.80
57030;DHT22;42920;45.306;20.448;2023-04-12T07:44:58;358.40;2124.80
57030;DHT22;42920;45.306;20.448;2023-04-12T07:47:23;358.50;2150.40
57030;DHT22;42920;45.306;20.448;2023-04-12T07:49:49;358.60;2048.00
57030;DHT22;42920;45.306;20.448;2023-04-12T07:52:14;358.70;2048.00
57030;DHT22;42920;45.306;20.448;2023-04-12T07:54:40;358.70;2048.00
57030;DHT22;42920;45.306;20.448;2023-04-12T07:57:06;358.60;2022.40
57030;DHT22;42920;45.306;20.448;2023-04-12T07:59:33;358.60;2099.20
57030;DHT22;42920;45.306;20.448;2023-04-12T08:01:58;358.50;2048.00
57030;DHT22;42920;45.306;20.448;2023-04-12T08:04:24;358.50;2073.60
57030;DHT22;42920;45.306;20.448;2023-04-12T08:06:52;358.60;2048.00
57030;DHT22;42920;45.306;20.448;2023-04-12T08:09:18;358.60;2022.40
57030;DHT22;42920;45.306;20.448;2023-04-12T08:11:43;358.60;2073.60
57030;DHT22;42920;45.306;20.448;2023-04-12T08:14:09;358.60;2048.00
57030;DHT22;42920;45.306;20.448;2023-04-12T08:16:35;358.70;2099.20
57030;DHT22;42920;45.306;20.448;2023-04-12T08:19:00;358.80;2022.40
57030;DHT22;42920;45.306;20.448;2023-04-12T08:21:26;358.90;2073.60
57030;DHT22;42920;45.306;20.448;2023-04-12T08:23:52;358.90;2022.40
57030;DHT22;42920;45.306;20.448;2023-04-12T08:26:17;358.90;1996.80
57030;DHT22;42920;45.306;20.448;2023-04-12T08:28:43;359.00;2022.40
57030;DHT22;42920;45.306;20.448;2023-04-12T08:31:09;359.00;2022.40
57030;DHT22;42920;45.306;20.448;2023-04-12T08:33:34;358.90;1971.20
57030;DHT22;42920;45.306;20.448;2023-04-12T08:36:00;358.90;2022.40
57030;DHT22;42920;45.306;20.448;2023-04-12T08:38:26;358.90;1971.20
57030;DHT22;42920;45.306;20.448;2023-04-12T08:40:51;358.90;1996.80
57030;DHT22;42920;45.306;20.448;2023-04-12T08:43:17;358.90;2022.40
57030;DHT22;42920;45.306;20.448;2023-04-12T08:45:47;359.00;1996.80
57030;DHT22;42920;45.306;20.448;2023-04-12T08:48:13;359.10;1945.60
57030;DHT22;42920;45.306;20.448;2023-04-12T08:50:40;359.20;1920.00
57030;DHT22;42920;45.306;20.448;2023-04-12T08:53:08;359.20;1920.00
57030;DHT22;42920;45.306;20.448;2023-04-12T08:55:34;359.30;1920.00
57030;DHT22;42920;45.306;20.448;2023-04-12T08:58:00;359.30;1894.40
57030;DHT22;42920;45.306;20.448;2023-04-12T09:00:32;359.30;1945.60
57030;DHT22;42920;45.306;20.448;2023-04-12T09:02:58;384.10;1894.40
57030;DHT22;42920;45.306;20.448;2023-04-12T09:05:27;359.10;1843.20
57030;DHT22;42920;45.306;20.448;2023-04-12T09:07:53;359.30;1843.20
57030;DHT22;42920;45.306;20.448;2023-04-12T09:10:34;384.20;1868.80
57030;DHT22;42920;45.306;20.448;2023-04-12T09:13:01;384.40;1843.20
57030;DHT22;42920;45.306;20.448;2023-04-12T09:15:28;384.40;1766.40
57030;DHT22;42920;45.306;20.448;2023-04-12T09:18:04;384.40;1792.00
57030;DHT22;42920;45.306;20.448;2023-04-12T09:20:30;384.60;1740.80
57030;DHT22;42920;45.306;20.448;2023-04-12T09:22:57;384.70;1689.60
57030;DHT22;42920;45.306;20.448;2023-04-12T09:28:22;384.90;1638.40
57030;DHT22;42920;45.306;20.448;2023-04-12T09:30:48;409.90;1664.00
57030;DHT22;42920;45.306;20.448;2023-04-12T09:33:16;409.90;1638.40
57030;DHT22;42920;45.306;20.448;2023-04-12T09:35:42;410.10;1664.00
57030;DHT22;42920;45.306;20.448;2023-04-12T09:38:10;410.20;1612.80
57030;DHT22;42920;45.306;20.448;2023-04-12T09:40:36;410.20;1587.20
57030;DHT22;42920;45.306;20.448;2023-04-12T09:43:02;410.20;1561.60
57030;DHT22;42920;45.306;20.448;2023-04-12T09:45:28;410.10;1561.60
57030;DHT22;42920;45.306;20.448;2023-04-12T09:47:55;410.20;1587.20
57030;DHT22;42920;45.306;20.448;2023-04-12T09:50:24;410.40;1561.60
57030;DHT22;42920;45.306;20.448;2023-04-12T09:52:54;410.50;1587.20
57030;DHT22;42920;45.306;20.448;2023-04-12T09:55:21;435.30;1561.60
57030;DHT22;42920;45.306;20.448;2023-04-12T09:57:46;410.50;1510.40
57030;DHT22;42920;45.306;20.448;2023-04-12T10:00:13;410.40;1536.00
57030;DHT22;42920;45.306;20.448;2023-04-12T10:02:42;435.20;1510.40
57030;DHT22;42920;45.306;20.448;2023-04-12T10:05:09;435.50;1510.40
57030;DHT22;42920;45.306;20.448;2023-04-12T10:07:40;435.50;1510.40
57030;DHT22;42920;45.306;20.448;2023-04-12T10:10:09;435.30;1459.20
57030;DHT22;42920;45.306;20.448;2023-04-12T10:12:37;435.50;1484.80
57030;DHT22;42920;45.306;20.448;2023-04-12T10:15:03;435.80;1459.20
57030;DHT22;42920;45.306;20.448;2023-04-12T10:17:30;436.00;1484.80
57030;DHT22;42920;45.306;20.448;2023-04-12T10:19:56;461.00;1484.80
57030;DHT22;42920;45.306;20.448;2023-04-12T10:22:23;461.30;1433.60
57030;DHT22;42920;45.306;20.448;2023-04-12T10:24:48;461.00;1433.60
57030;DHT22;42920;45.306;20.448;2023-04-12T10:27:23;461.10;1408.00
57030;DHT22;42920;45.306;20.448;2023-04-12T10:29:49;461.00;1382.40
57030;DHT22;42920;45.306;20.448;2023-04-12T10:32:21;461.30;1408.00
57030;DHT22;42920;45.306;20.448;2023-04-12T10:34:54;461.40;1382.40
57030;DHT22;42920;45.306;20.448;2023-04-12T10:37:21;461.60;1382.40
57030;DHT22;42920;45.306;20.448;2023-04-12T10:39:53;486.40;1356.80
57030;DHT22;42920;45.306;20.448;2023-04-12T10:42:25;486.60;1331.20
57030;DHT22;42920;45.306;20.448;2023-04-12T10:44:52;461.20;1382.40
57030;DHT22;42920;45.306;20.448;2023-04-12T10:50:19;461.40;1356.80
57030;DHT22;42920;45.306;20.448;2023-04-12T10:53:07;461.30;1356.80
57030;DHT22;42920;45.306;20.448;2023-04-12T10:55:31;486.50;1331.20
57030;DHT22;42920;45.306;20.448;2023-04-12T10:57:57;486.90;1305.60
57030;DHT22;42920;45.306;20.448;2023-04-12T11:00:23;487.00;1305.60
57030;DHT22;42920;45.306;20.448;2023-04-12T11:03:07;487.00;1254.40
57030;DHT22;42920;45.306;20.448;2023-04-12T11:08:20;461.70;1331.20
57030;DHT22;42920;45.306;20.448;2023-04-12T11:10:47;486.90;1305.60
57030;DHT22;42920;45.306;20.448;2023-04-12T11:13:13;487.10;1254.40
57030;DHT22;42920;45.306;20.448;2023-04-12T11:15:40;512.00;1254.40
57030;DHT22;42920;45.306;20.448;2023-04-12T11:18:06;487.10;1228.80
57030;DHT22;42920;45.306;20.448;2023-04-12T11:20:31;487.30;1228.80
57030;DHT22;42920;45.306;20.448;2023-04-12T11:22:57;512.20;1228.80
57030;DHT22;42920;45.306;20.448;2023-04-12T11:25:23;512.20;1228.80
57030;DHT22;42920;45.306;20.448;2023-04-12T11:27:50;487.30;1203.20
57030;DHT22;42920;45.306;20.448;2023-04-12T11:30:15;487.10;1203.20
57030;DHT22;42920;45.306;20.448;2023-04-12T11:32:43;487.00;1203.20
57030;DHT22;42920;45.306;20.448;2023-04-12T11:35:08;486.90;1254.40
57030;DHT22;42920;45.306;20.448;2023-04-12T11:37:34;486.40;1280.00
57030;DHT22;42920;45.306;20.448;2023-04-12T11:40:00;486.90;1280.00
57030;DHT22;42920;45.306;20.448;2023-04-12T11:42:29;487.00;1254.40
57030;DHT22;42920;45.306;20.448;2023-04-12T11:44:55;487.30;1228.80
57030;DHT22;42920;45.306;20.448;2023-04-12T11:47:22;487.10;1228.80
57030;DHT22;42920;45.306;20.448;2023-04-12T11:49:49;487.00;1254.40
57030;DHT22;42920;45.306;20.448;2023-04-12T11:52:15;487.00;1254.40
57030;DHT22;42920;45.306;20.448;2023-04-12T11:54:47;512.10;1203.20
57030;DHT22;42920;45.306;20.448;2023-04-12T11:57:14;512.80;1152.00
57030;DHT22;42920;45.306;20.448;2023-04-12T11:59:41;537.70;1152.00
57030;DHT22;42920;45.306;20.448;2023-04-12T12:02:07;537.70;1177.60
57030;DHT22;42920;45.306;20.448;2023-04-12T12:04:33;512.70;1177.60
57030;DHT22;42920;45.306;20.448;2023-04-12T12:06:58;537.80;1177.60
57030;DHT22;42920;45.306;20.448;2023-04-12T12:09:24;538.00;1203.20
57030;DHT22;42920;45.306;20.448;2023-04-12T12:11:50;512.60;1152.00
57030;DHT22;42920;45.306;20.448;2023-04-12T12:14:20;512.60;1152.00
57030;DHT22;42920;45.306;20.448;2023-04-12T12:16:53;512.90;1152.00
57030;DHT22;42920;45.306;20.448;2023-04-12T12:19:55;537.70;1126.40
57030;DHT22;42920;45.306;20.448;2023-04-12T12:24:56;512.50;1126.40
57030;DHT22;42920;45.306;20.448;2023-04-12T12:27:35;512.00;1126.40
57030;DHT22;42920;45.306;20.448;2023-04-12T12:30:02;512.00;1152.00
57030;DHT22;42920;45.306;20.448;2023-04-12T12:32:35;512.60;1126.40
57030;DHT22;42920;45.306;20.448;2023-04-12T12:35:01;512.70;1075.20
57030;DHT22;42920;45.306;20.448;2023-04-12T12:37:27;512.90;1075.20
57030;DHT22;42920;45.306;20.448;2023-04-12T12:42:25;512.80;1075.20
57030;DHT22;42920;45.306;20.448;2023-04-12T12:44:51;512.90;1075.20
57030;DHT22;42920;45.306;20.448;2023-04-12T12:47:16;512.80;1075.20
57030;DHT22;42920;45.306;20.448;2023-04-12T12:49:42;512.70;1075.20
57030;DHT22;42920;45.306;20.448;2023-04-12T12:52:07;537.80;1100.80
57030;DHT22;42920;45.306;20.448;2023-04-12T12:54:33;538.00;1049.60
57030;DHT22;42920;45.306;20.448;2023-04-12T12:56:59;538.10;1049.60
57030;DHT22;42920;45.306;20.448;2023-04-12T12:59:25;538.00;1049.60
57030;DHT22;42920;45.306;20.448;2023-04-12T13:01:51;538.00;1049.60
57030;DHT22;42920;45.306;20.448;2023-04-12T13:04:17;537.90;1075.20
57030;DHT22;42920;45.306;20.448;2023-04-12T13:06:42;538.10;1075.20
57030;DHT22;42920;45.306;20.448;2023-04-12T13:09:08;512.70;1075.20
57030;DHT22;42920;45.306;20.448;2023-04-12T13:11:33;512.70;1075.20
57030;DHT22;42920;45.306;20.448;2023-04-12T13:13:59;537.70;1100.80
57030;DHT22;42920;45.306;20.448;2023-04-12T13:16:24;512.60;1075.20
57030;DHT22;42920;45.306;20.448;2023-04-12T13:18:50;512.60;1049.60
57030;DHT22;42920;45.306;20.448;2023-04-12T13:21:15;512.90;1049.60
57030;DHT22;42920;45.306;20.448;2023-04-12T13:23:41;537.80;1049.60
57030;DHT22;42920;45.306;20.448;2023-04-12T13:26:07;537.90;1049.60
57030;DHT22;42920;45.306;20.448;2023-04-12T13:28:32;537.80;1024.00
57030;DHT22;42920;45.306;20.448;2023-04-12T13:30:58;538.10;1049.60
57030;DHT22;42920;45.306;20.448;2023-04-12T13:33:23;538.30;1049.60
57030;DHT22;42920;45.306;20.448;2023-04-12T13:35:49;538.20;1024.00
57030;DHT22;42920;45.306;20.448;2023-04-12T13:38:14;538.20;1024.00
57030;DHT22;42920;45.306;20.448;2023-04-12T13:40:40;538.20;1024.00
57030;DHT22;42920;45.306;20.448;2023-04-12T13:43:05;538.40;1024.00
57030;DHT22;42920;45.306;20.448;2023-04-12T13:45:32;538.40;1024.00
57030;DHT22;42920;45.306;20.448;2023-04-12T13:47:58;538.40;1024.00
57030;DHT22;42920;45.306;20.448;2023-04-12T13:50:23;538.30;947.20
57030;DHT22;42920;45.306;20.448;2023-04-12T13:52:50;538.00;972.80
57030;DHT22;42920;45.306;20.448;2023-04-12T13:55:15;538.10;998.40
57030;DHT22;42920;45.306;20.448;2023-04-12T13:57:41;538.20;998.40
57030;DHT22;42920;45.306;20.448;2023-04-12T14:00:07;538.10;972.80
57030;DHT22;42920;45.306;20.448;2023-04-12T14:02:33;538.00;998.40
57030;DHT22;42920;45.306;20.448;2023-04-12T14:04:59;537.90;1024.00
57030;DHT22;42920;45.306;20.448;2023-04-12T14:07:25;537.90;1024.00
57030;DHT22;42920;45.306;20.448;2023-04-12T14:09:52;537.60;1024.00
57030;DHT22;42920;45.306;20.448;2023-04-12T14:12:19;537.80;1024.00
57030;DHT22;42920;45.306;20.448;2023-04-12T14:14:45;538.00;1024.00
57030;DHT22;42920;45.306;20.448;2023-04-12T14:17:11;538.00;1024.00
57030;DHT22;42920;45.306;20.448;2023-04-12T14:19:36;538.00;1024.00
57030;DHT22;42920;45.306;20.448;2023-04-12T14:22:02;537.80;1024.00
57030;DHT22;42920;45.306;20.448;2023-04-12T14:24:28;512.90;998.40
57030;DHT22;42920;45.306;20.448;2023-04-12T14:26:53;512.80;998.40
57030;DHT22;42920;45.306;20.448;2023-04-12T14:29:19;512.70;998.40
57030;DHT22;42920;45.306;20.448;2023-04-12T14:31:44;512.80;998.40
57030;DHT22;42920;45.306;20.448;2023-04-12T14:34:10;512.80;998.40
57030;DHT22;42920;45.306;20.448;2023-04-12T14:36:37;512.90;998.40
57030;DHT22;42920;45.306;20.448;2023-04-12T14:39:03;512.70;998.40
57030;DHT22;42920;45.306;20.448;2023-04-12T14:41:29;512.70;998.40
57030;DHT22;42920;45.306;20.448;2023-04-12T14:43:55;512.70;972.80
57030;DHT22;42920;45.306;20.448;2023-04-12T14:46:21;512.90;972.80
57030;DHT22;42920;45.306;20.448;2023-04-12T14:48:47;512.80;972.80
57030;DHT22;42920;45.306;20.448;2023-04-12T14:51:13;512.70;972.80
57030;DHT22;42920;45.306;20.448;2023-04-12T14:53:39;512.50;972.80
57030;DHT22;42920;45.306;20.448;2023-04-12T14:56:14;512.40;972.80
57030;DHT22;42920;45.306;20.448;2023-04-12T14:58:41;512.40;998.40
57030;DHT22;42920;45.306;20.448;2023-04-12T15:01:09;512.40;972.80
57030;DHT22;42920;45.306;20.448;2023-04-12T15:03:35;512.40;998.40